createdAt,value
2022-11-27T00:01:36.407Z,101682.10
2022-11-27T00:04:09.442Z,101681.15
2022-11-27T00:06:42.932Z,101679.45
2022-11-27T00:09:14.800Z,101678.06
2022-11-27T00:11:44.526Z,101677.20
2022-11-27T00:14:17.034Z,101675.84
2022-11-27T00:16:45.352Z,101673.80
2022-11-27T00:19:13.435Z,101673.86
2022-11-27T00:21:41.592Z,101678.15
2022-11-27T00:24:12.057Z,101677.27
2022-11-27T00:26:40.191Z,101676.41
2022-11-27T00:29:09.163Z,101674.66
2022-11-27T00:31:38.050Z,101677.38
2022-11-27T00:34:08.865Z,101679.04
2022-11-27T00:36:38.085Z,101670.65
2022-11-27T00:39:07.094Z,101673.77
2022-11-27T00:41:35.558Z,101672.37
2022-11-27T00:44:04.465Z,101674.44
2022-11-27T00:46:35.731Z,101675.26
2022-11-27T00:49:06.740Z,101677.80
2022-11-27T00:51:36.437Z,101676.40
2022-11-27T00:54:05.094Z,101677.27
2022-11-27T00:56:36.194Z,101675.05
2022-11-27T00:59:06.646Z,101677.80
2022-11-27T01:01:41.765Z,101676.71
2022-11-27T01:04:14.237Z,101677.54
2022-11-27T01:06:43.307Z,101673.73
2022-11-27T01:09:16.539Z,101677.30
2022-11-27T01:11:44.670Z,101674.92
2022-11-27T01:14:20.270Z,101675.59
2022-11-27T01:16:48.370Z,101677.98
2022-11-27T01:19:16.772Z,101674.95
2022-11-27T01:21:45.795Z,101680.42
2022-11-27T01:24:15.681Z,101680.02
2022-11-27T01:26:44.579Z,101677.46
2022-11-27T01:29:13.122Z,101681.44
2022-11-27T01:31:41.439Z,101674.45
2022-11-27T01:34:15.448Z,101678.92
2022-11-27T01:36:43.922Z,101682.39
2022-11-27T01:39:18.470Z,101682.36
2022-11-27T01:41:48.788Z,101682.50
2022-11-27T01:44:26.330Z,101684.74
2022-11-27T01:47:07.915Z,101688.00
2022-11-27T01:49:38.377Z,101686.84
2022-11-27T01:52:29.795Z,101684.17
2022-11-27T01:55:21.909Z,101688.00
2022-11-27T01:57:59.226Z,101681.69
2022-11-27T02:00:28.045Z,101680.46
2022-11-27T02:02:56.299Z,101682.31
2022-11-27T02:05:28.864Z,101681.55
2022-11-27T02:07:59.188Z,101682.27
2022-11-27T02:10:51.653Z,101691.11
2022-11-27T02:13:31.155Z,101692.67
2022-11-27T02:16:24.329Z,101695.19
2022-11-27T02:19:27.189Z,101693.98
2022-11-27T02:22:17.335Z,101694.48
2022-11-27T02:25:07.519Z,101693.36
2022-11-27T02:28:11.140Z,101698.73
2022-11-27T02:30:46.368Z,101695.13
2022-11-27T02:33:20.034Z,101703.62
2022-11-27T02:36:07.757Z,101711.48
2022-11-27T02:38:45.195Z,101707.98
2022-11-27T02:41:19.880Z,101706.80
2022-11-27T02:43:51.006Z,101712.60
2022-11-27T02:46:21.172Z,101713.86
2022-11-27T02:48:52.959Z,101709.34
2022-11-27T02:51:25.739Z,101711.59
2022-11-27T02:54:01.930Z,101712.71
2022-11-27T02:56:32.731Z,101713.51
2022-11-27T02:59:06.839Z,101716.98
2022-11-27T03:01:41.676Z,101717.67
2022-11-27T03:04:17.990Z,101714.17
2022-11-27T03:06:54.904Z,101711.63
2022-11-27T03:09:49.565Z,101709.65
2022-11-27T03:12:19.486Z,101705.23
2022-11-27T03:14:48.902Z,101703.82
2022-11-27T03:17:41.232Z,101704.33
2022-11-27T03:20:25.871Z,101701.59
2022-11-27T03:22:57.558Z,101699.52
2022-11-27T03:25:25.746Z,101702.79
2022-11-27T03:28:08.500Z,101699.52
2022-11-27T03:30:38.158Z,101701.83
2022-11-27T03:33:08.316Z,101700.59
2022-11-27T03:35:39.283Z,101699.05
2022-11-27T03:38:07.366Z,101701.28
2022-11-27T03:41:10.206Z,101702.70
2022-11-27T03:43:46.931Z,101703.31
2022-11-27T03:46:32.576Z,101709.17
2022-11-27T03:49:15.444Z,101707.58
2022-11-27T03:52:03.695Z,101707.00
2022-11-27T03:54:49.740Z,101708.90
2022-11-27T03:57:34.182Z,101712.44
2022-11-27T04:00:07.347Z,101706.54
2022-11-27T04:02:47.932Z,101707.51
2022-11-27T04:05:16.902Z,101704.41
2022-11-27T04:07:44.954Z,101705.83
2022-11-27T04:10:13.176Z,101705.63
2022-11-27T04:12:41.233Z,101713.18
2022-11-27T04:15:09.701Z,101708.45
2022-11-27T04:17:37.730Z,101708.22
2022-11-27T04:20:06.996Z,101706.75
2022-11-27T04:22:35.414Z,101708.64
2022-11-27T04:25:04.173Z,101710.67
2022-11-27T04:27:32.583Z,101714.85
2022-11-27T04:30:00.831Z,101714.50
2022-11-27T04:32:29.267Z,101715.48
2022-11-27T04:34:57.483Z,101717.02
2022-11-27T04:37:25.926Z,101718.47
2022-11-27T04:39:54.057Z,101719.30
2022-11-27T04:42:22.605Z,101716.68
2022-11-27T04:44:50.805Z,101714.93
2022-11-27T04:47:19.074Z,101715.40
2022-11-27T04:49:47.320Z,101711.33
2022-11-27T04:52:15.483Z,101712.69
2022-11-27T04:54:43.722Z,101712.98
2022-11-27T04:57:11.712Z,101712.58
2022-11-27T04:59:39.759Z,101710.42
2022-11-27T05:02:07.872Z,101712.27
2022-11-27T05:04:35.963Z,101709.22
2022-11-27T05:07:04.061Z,101704.70
2022-11-27T05:09:32.195Z,101704.13
2022-11-27T05:12:00.766Z,101707.55
2022-11-27T05:14:29.393Z,101707.96
2022-11-27T05:16:59.370Z,101707.00
2022-11-27T05:19:30.686Z,101708.37
2022-11-27T05:21:59.123Z,101707.15
2022-11-27T05:24:29.172Z,101705.64
2022-11-27T05:26:58.070Z,101703.77
2022-11-27T05:29:26.551Z,101702.64
2022-11-27T05:31:54.730Z,101702.67
2022-11-27T05:34:23.215Z,101700.23
2022-11-27T05:36:51.217Z,101703.03
2022-11-27T05:39:19.264Z,101699.90
2022-11-27T05:41:47.457Z,101700.30
2022-11-27T05:44:15.886Z,101699.16
2022-11-27T05:46:44.336Z,101698.13
2022-11-27T05:49:15.005Z,101698.64
2022-11-27T05:51:50.370Z,101705.69
2022-11-27T05:54:19.478Z,101709.30
2022-11-27T05:56:47.739Z,101707.60
2022-11-27T05:59:16.301Z,101703.39
2022-11-27T06:01:44.491Z,101702.71
2022-11-27T06:04:12.714Z,101699.17
2022-11-27T06:06:40.970Z,101696.66
2022-11-27T06:09:12.790Z,101691.67
2022-11-27T06:11:42.905Z,101696.27
2022-11-27T06:14:11.933Z,101699.27
2022-11-27T06:16:40.133Z,101694.91
2022-11-27T06:19:09.227Z,101689.97
2022-11-27T06:21:37.488Z,101683.80
2022-11-27T06:24:06.049Z,101685.48
2022-11-27T06:26:34.506Z,101687.61
2022-11-27T06:29:03.404Z,101686.73
2022-11-27T06:31:33.223Z,101689.05
2022-11-27T06:34:02.524Z,101696.17
2022-11-27T06:36:34.247Z,101699.67
2022-11-27T06:39:05.743Z,101698.16
2022-11-27T06:41:34.388Z,101702.70
2022-11-27T06:44:02.630Z,101708.72
2022-11-27T06:46:30.817Z,101704.55
2022-11-27T06:48:59.724Z,101710.11
2022-11-27T06:51:30.342Z,101708.02
2022-11-27T06:54:02.341Z,101706.56
2022-11-27T06:56:31.773Z,101708.73
2022-11-27T06:59:05.738Z,101713.17
2022-11-27T07:01:35.190Z,101712.95
2022-11-27T07:04:03.345Z,101709.59
2022-11-27T07:06:31.539Z,101705.79
2022-11-27T07:08:59.806Z,101701.85
2022-11-27T07:11:30.470Z,101697.41
2022-11-27T07:14:02.800Z,101694.92
2022-11-27T07:16:36.830Z,101695.23
2022-11-27T07:19:08.740Z,101693.16
2022-11-27T07:21:40.894Z,101690.53
2022-11-27T07:24:09.013Z,101686.45
2022-11-27T07:26:36.978Z,101682.92
2022-11-27T07:29:05.229Z,101687.58
2022-11-27T07:31:33.401Z,101690.15
2022-11-27T07:34:01.927Z,101693.43
2022-11-27T07:36:31.001Z,101691.80
2022-11-27T07:38:59.220Z,101690.55
2022-11-27T07:41:33.517Z,101685.87
2022-11-27T07:44:03.255Z,101687.66
2022-11-27T07:46:31.429Z,101689.29
2022-11-27T07:49:00.930Z,101687.53
2022-11-27T07:51:30.170Z,101683.21
2022-11-27T07:54:00.049Z,101685.93
2022-11-27T07:56:28.134Z,101689.51
2022-11-27T07:58:57.465Z,101689.20
2022-11-27T08:01:25.837Z,101688.55
2022-11-27T08:03:53.946Z,101692.52
2022-11-27T08:06:27.351Z,101693.45
2022-11-27T08:08:58.620Z,101694.69
2022-11-27T08:11:30.238Z,101694.86
2022-11-27T08:14:01.386Z,101697.83
2022-11-27T08:16:30.804Z,101693.90
2022-11-27T08:18:59.339Z,101692.13
2022-11-27T08:21:28.748Z,101694.30
2022-11-27T08:23:58.271Z,101697.76
2022-11-27T08:27:48.696Z,101697.46
2022-11-27T08:30:16.946Z,101694.06
2022-11-27T08:32:45.488Z,101689.55
2022-11-27T08:35:13.901Z,101689.49
2022-11-27T08:37:42.290Z,101690.64
2022-11-27T08:40:11.140Z,101694.78
2022-11-27T08:42:39.255Z,101693.43
2022-11-27T08:45:08.128Z,101695.67
2022-11-27T08:47:36.494Z,101696.49
2022-11-27T08:50:05.209Z,101699.21
2022-11-27T08:52:33.345Z,101700.84
2022-11-27T08:55:01.625Z,101708.21
2022-11-27T08:57:29.839Z,101712.84
2022-11-27T08:59:58.047Z,101712.33
2022-11-27T09:02:26.242Z,101713.48
2022-11-27T09:04:54.471Z,101715.56
2022-11-27T09:07:23.003Z,101716.73
2022-11-27T09:09:50.999Z,101716.36
2022-11-27T09:12:19.190Z,101718.64
2022-11-27T09:14:49.541Z,101718.95
2022-11-27T09:17:18.918Z,101710.90
2022-11-27T09:19:47.586Z,101714.81
2022-11-27T09:22:15.902Z,101714.45
2022-11-27T09:24:44.119Z,101712.42
2022-11-27T09:27:12.280Z,101705.67
2022-11-27T09:29:40.458Z,101705.15
2022-11-27T09:32:08.681Z,101705.84
2022-11-27T09:34:37.603Z,101697.59
2022-11-27T09:37:06.361Z,101690.98
2022-11-27T09:39:34.931Z,101694.05
2022-11-27T09:42:09.795Z,101696.26
2022-11-27T09:44:45.729Z,101696.82
2022-11-27T09:47:41.909Z,101695.98
2022-11-27T09:50:10.557Z,101695.48
2022-11-27T09:52:41.296Z,101693.77
2022-11-27T09:55:15.536Z,101689.91
2022-11-27T09:57:54.035Z,101687.73
2022-11-27T10:00:22.898Z,101688.80
2022-11-27T10:02:51.546Z,101683.56
2022-11-27T10:05:26.843Z,101688.88
2022-11-27T10:08:03.245Z,101688.11
2022-11-27T10:10:59.444Z,101682.00
2022-11-27T10:13:46.179Z,101680.13
2022-11-27T10:16:23.076Z,101674.77
2022-11-27T10:19:22.606Z,101679.36
2022-11-27T10:22:21.164Z,101675.52
2022-11-27T10:25:21.173Z,101678.54
2022-11-27T10:28:11.270Z,101678.61
2022-11-27T10:30:55.110Z,101675.41
2022-11-27T10:33:33.483Z,101672.93
2022-11-27T10:36:01.700Z,101673.02
2022-11-27T10:38:35.265Z,101669.63
2022-11-27T10:41:07.729Z,101666.88
2022-11-27T10:43:37.960Z,101663.75
2022-11-27T10:46:21.972Z,101663.33
2022-11-27T10:48:50.415Z,101663.45
2022-11-27T10:51:31.402Z,101661.34
2022-11-27T10:54:01.795Z,101658.66
2022-11-27T10:57:01.275Z,101658.95
2022-11-27T10:59:37.924Z,101654.14
2022-11-27T11:02:09.148Z,101654.23
2022-11-27T11:04:38.936Z,101658.16
2022-11-27T11:07:29.515Z,101659.22
2022-11-27T11:09:57.955Z,101660.32
2022-11-27T11:12:26.175Z,101663.27
2022-11-27T11:15:01.857Z,101658.51
2022-11-27T11:17:37.640Z,101652.80
2022-11-27T11:20:26.020Z,101648.17
2022-11-27T11:22:54.498Z,101647.62
2022-11-27T11:25:22.635Z,101651.29
2022-11-27T11:27:52.700Z,101646.70
2022-11-27T11:30:24.056Z,101643.70
2022-11-27T11:33:03.408Z,101643.84
2022-11-27T11:35:35.404Z,101636.02
2022-11-27T11:38:07.897Z,101634.11
2022-11-27T11:40:38.156Z,101633.83
2022-11-27T11:43:23.323Z,101640.27
2022-11-27T11:45:51.540Z,101639.94
2022-11-27T11:48:24.296Z,101638.80
2022-11-27T11:51:07.617Z,101641.59
2022-11-27T11:53:40.579Z,101642.71
2022-11-27T11:56:11.761Z,101641.72
2022-11-27T11:59:01.633Z,101640.34
2022-11-27T12:01:46.454Z,101638.42
2022-11-27T12:04:33.927Z,101637.41
2022-11-27T12:07:04.592Z,101643.27
2022-11-27T12:09:46.601Z,101639.50
2022-11-27T12:12:43.940Z,101636.89
2022-11-27T12:15:17.323Z,101633.31
2022-11-27T12:18:26.339Z,101627.75
2022-11-27T12:21:05.190Z,101628.84
2022-11-27T12:23:45.156Z,101625.66
2022-11-27T12:26:18.820Z,101627.48
2022-11-27T12:28:59.181Z,101626.30
2022-11-27T12:31:42.006Z,101624.35
2022-11-27T12:34:38.487Z,101621.61
2022-11-27T12:37:26.340Z,101623.59
2022-11-27T12:40:18.493Z,101620.48
2022-11-27T12:43:09.636Z,101619.34
2022-11-27T12:45:53.821Z,101618.86
2022-11-27T12:48:39.760Z,101618.69
2022-11-27T12:51:16.426Z,101620.54
2022-11-27T12:54:04.187Z,101617.25
2022-11-27T12:56:41.846Z,101615.98
2022-11-27T12:59:25.732Z,101615.71
2022-11-27T13:02:09.200Z,101615.20
2022-11-27T13:04:45.204Z,101614.48
2022-11-27T13:07:45.849Z,101612.30
2022-11-27T13:10:28.762Z,101610.81
2022-11-27T13:13:23.061Z,101611.58
2022-11-27T13:16:11.616Z,101609.63
2022-11-27T13:18:55.298Z,101606.54
2022-11-27T13:21:30.212Z,101606.52
2022-11-27T13:24:12.840Z,101606.75
2022-11-27T13:26:55.097Z,101604.80
2022-11-27T13:29:34.549Z,101604.83
2022-11-27T13:32:05.199Z,101607.72
2022-11-27T13:34:43.173Z,101605.73
2022-11-27T13:37:42.009Z,101608.44
2022-11-27T13:40:12.832Z,101598.59
2022-11-27T13:42:45.544Z,101600.61
2022-11-27T13:45:44.115Z,101600.45
2022-11-27T13:48:38.758Z,101596.99
2022-11-27T13:51:10.286Z,101595.34
2022-11-27T13:53:41.095Z,101597.71
2022-11-27T13:56:10.067Z,101601.02
2022-11-27T13:58:42.259Z,101608.64
2022-11-27T14:01:19.513Z,101609.36
2022-11-27T14:03:48.965Z,101605.05
2022-11-27T14:06:19.084Z,101604.05
2022-11-27T14:08:59.605Z,101600.11
2022-11-27T14:11:44.529Z,101599.84
2022-11-27T14:14:23.443Z,101596.85
2022-11-27T14:16:59.021Z,101603.26
2022-11-27T14:19:59.747Z,101601.36
2022-11-27T14:22:48.493Z,101599.41
2022-11-27T14:25:30.188Z,101595.38
2022-11-27T14:28:30.803Z,101592.11
2022-11-27T14:31:01.964Z,101588.92
2022-11-27T14:33:59.707Z,101586.56
2022-11-27T14:36:28.543Z,101587.13
2022-11-27T14:38:57.191Z,101586.38
2022-11-27T14:41:27.407Z,101585.38
2022-11-27T14:44:02.788Z,101584.41
2022-11-27T14:46:36.262Z,101586.75
2022-11-27T14:49:04.708Z,101590.52
2022-11-27T14:51:35.905Z,101590.36
2022-11-27T14:54:11.400Z,101586.92
2022-11-27T14:56:43.606Z,101586.97
2022-11-27T14:59:23.556Z,101583.52
2022-11-27T15:02:07.443Z,101583.71
2022-11-27T15:04:39.147Z,101579.58
2022-11-27T15:07:45.225Z,101578.91
2022-11-27T15:10:22.253Z,101579.04
2022-11-27T15:12:51.161Z,101576.70
2022-11-27T15:15:42.101Z,101576.41
2022-11-27T15:18:27.653Z,101568.77
2022-11-27T15:20:57.335Z,101574.35
2022-11-27T15:23:31.719Z,101571.23
2022-11-27T15:25:59.858Z,101569.71
2022-11-27T15:28:32.510Z,101567.80
2022-11-27T15:31:01.276Z,101568.23
2022-11-27T15:33:32.575Z,101569.92
2022-11-27T15:36:20.063Z,101572.13
2022-11-27T15:38:51.333Z,101576.41
2022-11-27T15:41:26.165Z,101576.66
2022-11-27T15:43:55.799Z,101573.00
2022-11-27T15:46:30.380Z,101571.41
2022-11-27T15:48:58.946Z,101573.37
2022-11-27T15:51:26.939Z,101578.00
2022-11-27T15:53:55.127Z,101575.98
2022-11-27T15:56:23.199Z,101575.45
2022-11-27T15:58:51.339Z,101579.55
2022-11-27T16:01:19.428Z,101582.57
2022-11-27T16:21:35.308Z,101566.21
2022-11-27T16:26:19.260Z,101561.27
2022-11-27T16:29:05.807Z,101560.00
2022-11-27T16:31:52.173Z,101556.30
2022-11-27T16:34:37.729Z,101553.94
2022-11-27T16:39:56.780Z,101547.48
2022-11-27T16:54:49.224Z,101541.88
2022-11-27T16:57:51.363Z,101535.31
2022-11-27T17:01:48.139Z,101534.05
2022-11-27T17:05:51.549Z,101538.40
2022-11-27T17:10:15.104Z,101536.14
2022-11-27T17:14:26.951Z,101538.46
2022-11-27T17:17:53.873Z,101536.55
2022-11-27T17:21:50.625Z,101537.55
2022-11-27T17:36:37.162Z,101525.69
2022-11-27T17:39:36.034Z,101527.43
2022-11-27T17:44:04.796Z,101517.56
2022-11-27T17:48:19.393Z,101513.41
2022-11-27T17:51:42.265Z,101511.21
2022-11-27T17:54:28.650Z,101511.48
2022-11-27T17:57:15.109Z,101512.06
2022-11-27T18:00:04.245Z,101513.52
2022-11-27T18:02:50.662Z,101512.24
2022-11-27T18:05:40.690Z,101512.79
2022-11-27T18:08:27.390Z,101515.36
2022-11-27T18:11:20.491Z,101513.14
2022-11-27T18:14:07.212Z,101508.27
2022-11-27T18:16:53.644Z,101508.64
2022-11-27T18:19:40.192Z,101506.19
2022-11-27T18:22:27.128Z,101506.84
2022-11-27T18:25:13.943Z,101501.45
2022-11-27T18:28:02.630Z,101501.23
2022-11-27T18:30:49.120Z,101497.85
2022-11-27T18:33:36.422Z,101494.57
2022-11-27T18:36:23.851Z,101494.61
2022-11-27T18:39:10.482Z,101492.61
2022-11-27T18:41:57.016Z,101491.00
2022-11-27T18:44:45.016Z,101488.70
2022-11-27T18:47:33.590Z,101490.89
2022-11-27T18:50:21.143Z,101493.02
2022-11-27T18:53:15.211Z,101490.87
2022-11-27T18:56:08.126Z,101490.64
2022-11-27T18:58:55.352Z,101489.29
2022-11-27T19:01:45.047Z,101489.60
2022-11-27T19:04:34.341Z,101492.65
2022-11-27T19:11:38.481Z,101496.32
2022-11-27T19:14:25.162Z,101498.20
2022-11-27T19:17:11.897Z,101494.23
2022-11-27T19:20:02.308Z,101492.34
2022-11-27T19:22:48.849Z,101492.80
2022-11-27T19:25:39.865Z,101491.25
2022-11-27T19:28:26.537Z,101492.02
2022-11-27T19:31:16.184Z,101489.27
2022-11-27T19:34:08.775Z,101489.30
2022-11-27T19:36:58.910Z,101487.21
2022-11-27T19:39:45.917Z,101486.79
2022-11-27T19:42:33.058Z,101489.29
2022-11-27T19:45:30.167Z,101488.44
2022-11-27T19:48:22.699Z,101483.55
2022-11-27T19:51:12.962Z,101484.86
2022-11-27T19:54:05.645Z,101482.75
2022-11-27T19:56:55.374Z,101486.35
2022-11-27T19:59:43.082Z,101484.86
2022-11-27T20:02:31.817Z,101481.11
2022-11-27T20:05:19.516Z,101481.45
2022-11-27T20:08:06.100Z,101481.55
2022-11-27T20:10:52.564Z,101482.60
2022-11-27T20:13:39.730Z,101476.33
2022-11-27T20:16:26.800Z,101476.86
2022-11-27T20:19:13.622Z,101473.51
2022-11-27T20:22:00.335Z,101472.25
2022-11-27T20:25:11.132Z,101468.63
2022-11-27T20:27:53.327Z,101470.83
2022-11-27T20:30:41.181Z,101472.92
2022-11-27T20:33:29.170Z,101472.42
2022-11-27T20:36:19.561Z,101474.23
2022-11-27T20:39:06.472Z,101473.98
2022-11-27T20:41:58.767Z,101476.27
2022-11-27T20:44:45.938Z,101470.98
2022-11-27T20:47:32.399Z,101469.23
2022-11-27T20:50:22.633Z,101471.41
2022-11-27T20:53:09.422Z,101469.77
2022-11-27T20:55:56.141Z,101468.84
2022-11-27T20:58:44.264Z,101471.29
2022-11-27T21:01:33.792Z,101474.45
2022-11-27T21:04:26.175Z,101474.91
2022-11-27T21:07:14.705Z,101470.33
2022-11-27T21:10:01.569Z,101473.77
2022-11-27T21:12:50.228Z,101473.71
2022-11-27T21:15:36.685Z,101474.52
2022-11-27T21:18:22.925Z,101477.22
2022-11-27T21:21:12.543Z,101474.65
2022-11-27T21:23:59.948Z,101476.39
2022-11-27T21:26:48.405Z,101477.18
2022-11-27T21:29:36.062Z,101472.51
2022-11-27T21:32:22.765Z,101467.88
2022-11-27T21:35:09.589Z,101471.09
2022-11-27T21:37:56.326Z,101466.60
2022-11-27T21:40:43.618Z,101471.27
2022-11-27T21:43:31.695Z,101473.52
2022-11-27T21:46:20.122Z,101471.29
2022-11-27T21:49:06.703Z,101466.66
2022-11-27T21:51:54.051Z,101467.50
2022-11-27T21:54:45.039Z,101464.19
2022-11-27T21:57:31.756Z,101464.89
2022-11-27T22:00:18.758Z,101464.06
2022-11-27T22:03:05.384Z,101466.25
2022-11-27T22:06:05.130Z,101465.95
2022-11-27T22:08:54.295Z,101464.27
2022-11-27T22:11:41.258Z,101459.43
2022-11-27T22:14:27.301Z,101458.71
2022-11-27T22:17:14.109Z,101452.81
2022-11-27T22:20:00.683Z,101452.21
2022-11-27T22:22:47.395Z,101450.88
2022-11-27T22:25:33.609Z,101448.05
2022-11-27T22:28:21.141Z,101447.57
2022-11-27T22:31:13.097Z,101442.41
2022-11-27T22:34:00.548Z,101443.77
2022-11-27T22:36:49.836Z,101439.11
2022-11-27T22:39:36.002Z,101437.29
2022-11-27T22:42:22.741Z,101434.74
2022-11-27T22:45:11.805Z,101432.63
2022-11-27T22:47:58.424Z,101434.63
2022-11-27T22:50:44.867Z,101432.35
2022-11-27T22:53:31.624Z,101429.75
2022-11-27T22:56:20.151Z,101427.48
2022-11-27T23:02:14.014Z,101419.60
2022-11-27T23:05:03.953Z,101421.09
2022-11-27T23:07:50.516Z,101420.58
2022-11-27T23:10:38.722Z,101420.63
2022-11-27T23:13:25.084Z,101418.14
2022-11-27T23:16:12.471Z,101416.14
2022-11-27T23:18:59.159Z,101413.11
2022-11-27T23:21:45.916Z,101417.21
2022-11-27T23:24:33.898Z,101418.52
2022-11-27T23:27:20.925Z,101412.80
2022-11-27T23:30:08.383Z,101414.70
2022-11-27T23:32:55.187Z,101411.65
2022-11-27T23:35:41.946Z,101410.81
2022-11-27T23:38:32.126Z,101406.62
2022-11-27T23:41:20.941Z,101404.92
2022-11-27T23:44:07.862Z,101403.98
2022-11-27T23:46:55.547Z,101400.69
2022-11-27T23:49:42.876Z,101402.14
2022-11-27T23:52:29.651Z,101402.05
2022-11-27T23:55:16.536Z,101401.79
2022-11-27T23:58:03.589Z,101401.74
